Terminal Aerodrome Forecast
Issued by NWS

Home | Current Version | Previous Version | Text Only | Print | Product List | Glossary On
Versions: 1 2 3 4 5 6 7 8 9 10 11 12 13 14 15 16 17 18 19 20 21 22 23 24 25 26 27 28 29 30 31 32 33 34 35 36 37 38 39 40 41 42 43 44 45 46 47 48
353
FTUS45 KBOU 240726 AAA
TAFAPA
TAF AMD
KAPA 240726Z 2407/2506 34007KT P6SM FEW012 SCT022 BKN035
     FM240900 36007KT P6SM SCT010 SCT020 OVC035
      TEMPO 2412/2416 BKN020
     FM241600 02007KT P6SM SCT010 SCT025 BKN050
     FM242100 06008KT P6SM SCT025 BKN050 PROB30 2422/2502 3SM -SHSN
     FM250300 13008KT P6SM SCT025 BKN060=

USA.gov is the U.S. government's official web portal to all federal, state and local government web resources and services.